Grand Narrows, Canada
Current Conditions -  °F | °C
As of 6:00 PM on Sunday 21 Dec 2014 (Local Time) from CYPD Reporting Station
Overcast Overcast  
Wind Chill: -2°   Ceiling: 2100
Heat Index: -2°   Visibility: 9mi
Dew Point: -6°   Wind: 3mph
Humidity: 74%   Direction: 350°N
Pressure: 30.36"   Gusts: NA
Location:  45.95°N, 60.78°W
Report Text: CYPD 212200Z AUTO 35003KT 320V050 9SM OVC021 M02/M06 A3036 RMK SLP288
Loading
Personal Weather Stations






























Interactive Weather Map New forecast layout! Learn more

10-Day Weather Forecast

Advertisements
Track Severe Weather on mobile